createdAt,value
2023-05-19T00:01:25.220Z,3.03
2023-05-19T00:03:54.798Z,2.53
2023-05-19T00:06:24.395Z,2.40
2023-05-19T00:08:57.845Z,2.80
2023-05-19T00:11:27.130Z,2.45
2023-05-19T00:13:55.529Z,2.10
2023-05-19T00:16:24.555Z,2.77
2023-05-19T00:18:51.988Z,2.50
2023-05-19T00:21:19.745Z,2.25
2023-05-19T00:23:46.889Z,3.08
2023-05-19T00:26:14.306Z,2.42
2023-05-19T00:28:51.358Z,2.30
2023-05-19T00:31:18.708Z,2.53
2023-05-19T00:33:46.035Z,2.58
2023-05-19T00:36:13.418Z,2.33
2023-05-19T00:38:40.430Z,2.78
2023-05-19T00:41:07.868Z,2.23
2023-05-19T00:43:34.921Z,2.40
2023-05-19T00:46:03.028Z,2.28
2023-05-19T00:48:30.025Z,2.45
2023-05-19T00:51:02.572Z,2.75
2023-05-19T00:53:31.179Z,2.40
2023-05-19T00:55:59.370Z,2.55
2023-05-19T00:58:30.535Z,2.30
2023-05-19T01:01:04.472Z,2.40
2023-05-19T01:03:35.362Z,2.35
2023-05-19T01:06:07.545Z,2.90
2023-05-19T01:08:36.004Z,2.58
2023-05-19T01:11:07.877Z,2.42
2023-05-19T01:13:35.720Z,2.80
2023-05-19T01:16:18.485Z,2.92
2023-05-19T01:18:57.031Z,2.87
2023-05-19T01:22:02.475Z,3.33
2023-05-19T01:24:45.596Z,2.70
2023-05-19T01:27:32.442Z,2.90
2023-05-19T01:30:22.529Z,3.38
2023-05-19T01:32:53.632Z,2.40
2023-05-19T01:35:24.108Z,3.10
2023-05-19T01:37:58.464Z,2.70
2023-05-19T01:40:27.172Z,2.80
2023-05-19T01:42:57.745Z,3.08
2023-05-19T01:45:28.248Z,2.87
2023-05-19T01:47:58.663Z,3.03
2023-05-19T01:50:25.745Z,3.03
2023-05-19T01:52:53.142Z,3.78
2023-05-19T01:55:21.399Z,3.15
2023-05-19T01:58:07.665Z,3.10
2023-05-19T02:00:50.893Z,3.70
2023-05-19T02:03:30.251Z,3.70
2023-05-19T02:05:59.853Z,2.65
2023-05-19T02:08:31.415Z,2.88
2023-05-19T02:11:06.886Z,2.80
2023-05-19T02:13:37.691Z,3.08
2023-05-19T02:16:06.456Z,2.95
2023-05-19T02:18:33.882Z,3.05
2023-05-19T02:21:01.571Z,2.97
2023-05-19T02:23:29.475Z,2.90
2023-05-19T02:25:57.593Z,3.05
2023-05-19T02:28:28.578Z,2.92
2023-05-19T02:30:55.789Z,3.00
2023-05-19T02:33:26.258Z,2.83
2023-05-19T02:35:53.547Z,3.20
2023-05-19T02:38:21.573Z,2.85
2023-05-19T02:40:48.520Z,3.00
2023-05-19T02:43:16.267Z,2.95
2023-05-19T02:45:43.186Z,2.60
2023-05-19T02:48:10.856Z,3.00
2023-05-19T02:50:37.973Z,2.80
2023-05-19T02:53:05.293Z,2.88
2023-05-19T02:55:32.240Z,2.58
2023-05-19T02:57:59.582Z,3.00
2023-05-19T03:00:26.538Z,3.20
2023-05-19T03:02:54.390Z,2.90
2023-05-19T03:05:21.661Z,3.33
2023-05-19T03:07:48.880Z,2.90
2023-05-19T03:10:16.160Z,3.10
2023-05-19T03:12:43.399Z,3.10
2023-05-19T03:15:13.316Z,3.10
2023-05-19T03:17:41.030Z,3.50
2023-05-19T03:20:08.600Z,3.45
2023-05-19T03:22:36.121Z,3.15
2023-05-19T03:25:03.609Z,3.33
2023-05-19T03:27:31.619Z,3.75
2023-05-19T03:29:58.588Z,3.28
2023-05-19T03:32:26.295Z,3.92
2023-05-19T03:34:53.325Z,3.53
2023-05-19T03:37:20.961Z,3.60
2023-05-19T03:39:47.867Z,3.72
2023-05-19T03:42:15.223Z,3.40
2023-05-19T03:44:42.391Z,3.70
2023-05-19T03:47:11.253Z,3.97
2023-05-19T03:49:57.333Z,3.93
2023-05-19T03:52:49.343Z,3.28
2023-05-19T03:55:26.043Z,3.80
2023-05-19T03:57:53.361Z,3.60
2023-05-19T04:00:20.557Z,3.70
2023-05-19T04:02:47.969Z,3.57
2023-05-19T04:05:15.382Z,3.70
2023-05-19T04:07:43.368Z,3.65
2023-05-19T04:10:10.666Z,3.83
2023-05-19T04:12:37.918Z,4.13
2023-05-19T04:15:06.229Z,3.97
2023-05-19T04:17:33.573Z,3.78
2023-05-19T04:20:00.539Z,3.45
2023-05-19T04:22:29.037Z,4.10
2023-05-19T04:24:56.435Z,3.90
2023-05-19T04:27:24.681Z,3.63
2023-05-19T04:29:51.739Z,3.55
2023-05-19T04:32:19.370Z,4.00
2023-05-19T04:34:46.545Z,3.50
2023-05-19T04:37:20.499Z,4.00
2023-05-19T04:39:48.468Z,4.07
2023-05-19T04:42:19.491Z,4.30
2023-05-19T04:44:49.499Z,4.00
2023-05-19T04:47:18.144Z,4.63
2023-05-19T04:49:46.210Z,4.13
2023-05-19T04:52:13.851Z,3.53
2023-05-19T04:54:42.061Z,4.28
2023-05-19T04:57:12.454Z,4.10
2023-05-19T04:59:40.346Z,4.13
2023-05-19T05:02:08.895Z,4.00
2023-05-19T05:04:37.852Z,3.90
2023-05-19T05:07:05.292Z,4.35
2023-05-19T05:09:33.133Z,4.00
2023-05-19T05:12:03.282Z,4.40
2023-05-19T05:14:30.844Z,4.25
2023-05-19T05:16:58.474Z,3.70
2023-05-19T05:19:26.815Z,3.78
2023-05-19T05:21:55.108Z,4.00
2023-05-19T05:24:22.332Z,4.63
2023-05-19T05:26:54.364Z,4.07
2023-05-19T05:29:21.618Z,4.10
2023-05-19T05:31:48.867Z,3.75
2023-05-19T05:34:16.815Z,4.22
2023-05-19T05:36:44.193Z,4.60
2023-05-19T05:39:11.270Z,4.38
2023-05-19T05:41:40.789Z,4.30
2023-05-19T05:44:12.300Z,4.63
2023-05-19T05:46:42.130Z,4.40
2023-05-19T05:49:09.993Z,4.10
2023-05-19T05:51:37.555Z,4.13
2023-05-19T05:54:06.706Z,3.80
2023-05-19T05:56:38.403Z,4.05
2023-05-19T05:59:08.118Z,4.20
2023-05-19T06:01:38.301Z,4.30
2023-05-19T06:04:08.563Z,3.97
2023-05-19T06:06:38.195Z,4.10
2023-05-19T06:09:06.052Z,4.43
2023-05-19T06:11:33.561Z,3.88
2023-05-19T06:14:01.011Z,3.85
2023-05-19T06:16:48.247Z,4.05
2023-05-19T06:19:16.849Z,3.63
2023-05-19T06:21:44.677Z,3.65
2023-05-19T06:24:12.290Z,4.40
2023-05-19T06:26:39.729Z,4.22
2023-05-19T06:29:07.067Z,3.70
2023-05-19T06:31:34.817Z,4.07
2023-05-19T06:34:12.567Z,4.32
2023-05-19T06:36:41.634Z,4.05
2023-05-19T06:39:09.517Z,3.95
2023-05-19T06:41:37.343Z,3.67
2023-05-19T06:44:06.853Z,3.70
2023-05-19T06:46:34.404Z,3.97
2023-05-19T06:49:01.749Z,4.20
2023-05-19T06:51:32.923Z,4.18
2023-05-19T06:54:00.271Z,4.55
2023-05-19T06:56:28.164Z,4.10
2023-05-19T06:58:56.229Z,4.30
2023-05-19T07:01:30.373Z,4.60
2023-05-19T07:03:58.619Z,3.92
2023-05-19T07:06:26.221Z,4.35
2023-05-19T07:08:53.720Z,4.17
2023-05-19T07:11:21.928Z,3.90
2023-05-19T07:13:49.315Z,4.38
2023-05-19T07:16:23.099Z,3.63
2023-05-19T07:18:50.110Z,4.13
2023-05-19T07:21:17.589Z,3.97
2023-05-19T07:23:44.650Z,3.60
2023-05-19T07:26:12.427Z,4.05
2023-05-19T07:28:41.633Z,4.03
2023-05-19T07:31:10.026Z,3.97
2023-05-19T07:33:37.022Z,3.87
2023-05-19T07:36:04.753Z,3.78
2023-05-19T07:38:34.692Z,3.97
2023-05-19T07:41:03.105Z,4.07
2023-05-19T07:43:30.297Z,3.88
2023-05-19T07:45:57.588Z,3.83
2023-05-19T07:48:25.954Z,3.63
2023-05-19T07:50:53.570Z,3.63
2023-05-19T07:53:20.731Z,3.65
2023-05-19T07:55:48.103Z,3.65
2023-05-19T07:58:15.821Z,3.67
2023-05-19T08:00:43.668Z,3.65
2023-05-19T08:03:11.025Z,3.53
2023-05-19T08:05:38.428Z,3.70
2023-05-19T08:08:05.710Z,3.95
2023-05-19T08:10:33.228Z,3.70
2023-05-19T08:13:00.719Z,3.20
2023-05-19T08:15:28.022Z,3.45
2023-05-19T08:17:55.019Z,3.40
2023-05-19T08:20:23.204Z,3.58
2023-05-19T08:22:50.292Z,3.83
2023-05-19T08:25:19.944Z,3.63
2023-05-19T08:27:46.996Z,3.38
2023-05-19T08:30:14.518Z,3.85
2023-05-19T08:32:41.800Z,3.45
2023-05-19T08:35:09.708Z,3.40
2023-05-19T08:37:38.218Z,3.28
2023-05-19T08:40:06.556Z,3.50
2023-05-19T08:42:34.084Z,3.22
2023-05-19T08:45:02.955Z,3.50
2023-05-19T08:47:30.438Z,3.13
2023-05-19T08:50:05.489Z,3.50
2023-05-19T08:52:42.623Z,3.70
2023-05-19T08:55:18.401Z,3.40
2023-05-19T08:57:45.316Z,3.03
2023-05-19T09:00:13.495Z,3.35
2023-05-19T09:02:50.577Z,3.75
2023-05-19T09:05:28.993Z,2.80
2023-05-19T09:07:56.226Z,3.00
2023-05-19T09:10:23.820Z,3.42
2023-05-19T09:12:51.673Z,3.10
2023-05-19T09:15:19.551Z,3.03
2023-05-19T09:17:48.308Z,2.97
2023-05-19T09:20:17.169Z,3.30
2023-05-19T09:22:47.489Z,3.30
2023-05-19T09:25:19.943Z,3.28
2023-05-19T09:27:48.797Z,3.20
2023-05-19T09:30:19.704Z,3.30
2023-05-19T09:32:49.385Z,3.00
2023-05-19T09:35:17.528Z,2.85
2023-05-19T09:37:44.509Z,2.97
2023-05-19T09:40:14.644Z,3.22
2023-05-19T09:42:43.408Z,3.10
2023-05-19T09:45:11.515Z,3.10
2023-05-19T09:47:41.513Z,3.42
2023-05-19T09:50:11.140Z,3.80
2023-05-19T09:52:39.104Z,3.10
2023-05-19T09:55:10.598Z,2.80
2023-05-19T09:57:38.642Z,3.20
2023-05-19T10:00:14.686Z,3.45
2023-05-19T10:02:44.124Z,3.13
2023-05-19T10:05:13.453Z,3.70
2023-05-19T10:07:41.063Z,3.27
2023-05-19T10:10:10.090Z,2.95
2023-05-19T10:12:39.423Z,3.10
2023-05-19T10:15:19.615Z,3.20
2023-05-19T10:17:50.456Z,2.67
2023-05-19T10:20:18.180Z,2.93
2023-05-19T10:22:46.775Z,3.08
2023-05-19T10:25:15.493Z,2.63
2023-05-19T10:27:46.859Z,3.17
2023-05-19T10:30:17.760Z,2.85
2023-05-19T10:32:48.738Z,3.50
2023-05-19T10:35:42.915Z,3.25
2023-05-19T10:38:20.879Z,3.20
2023-05-19T10:41:03.032Z,3.10
2023-05-19T10:43:46.077Z,3.40
2023-05-19T10:46:13.604Z,2.90
2023-05-19T10:48:44.835Z,2.90
2023-05-19T10:51:12.513Z,2.85
2023-05-19T10:53:46.944Z,3.05
2023-05-19T10:56:35.080Z,3.30
2023-05-19T10:59:03.485Z,3.47
2023-05-19T11:01:33.743Z,2.95
2023-05-19T11:04:11.143Z,3.65
2023-05-19T11:06:40.433Z,3.70
2023-05-19T11:09:22.508Z,3.65
2023-05-19T11:11:54.808Z,3.30
2023-05-19T11:14:29.019Z,2.80
2023-05-19T11:17:00.279Z,2.90
2023-05-19T11:19:31.632Z,3.30
2023-05-19T11:22:12.638Z,2.85
2023-05-19T11:24:50.796Z,2.97
2023-05-19T11:27:35.185Z,2.90
2023-05-19T11:30:11.928Z,2.70
2023-05-19T11:32:42.114Z,3.30
2023-05-19T11:35:10.366Z,3.22
2023-05-19T11:37:37.706Z,3.30
2023-05-19T11:40:07.494Z,3.08
2023-05-19T11:42:36.298Z,3.33
2023-05-19T11:45:04.577Z,3.13
2023-05-19T11:47:46.527Z,2.67
2023-05-19T11:50:23.038Z,3.00
2023-05-19T11:52:54.470Z,3.10
2023-05-19T11:55:22.420Z,3.70
2023-05-19T11:58:03.858Z,2.78
2023-05-19T12:00:40.836Z,2.80
2023-05-19T12:03:09.567Z,2.63
2023-05-19T12:05:43.199Z,2.87
2023-05-19T12:08:12.483Z,2.78
2023-05-19T12:10:40.037Z,2.35
2023-05-19T12:13:10.684Z,3.00
2023-05-19T12:15:38.015Z,2.90
2023-05-19T12:18:05.894Z,2.90
2023-05-19T12:20:35.757Z,3.10
2023-05-19T12:23:04.215Z,3.20
2023-05-19T12:25:32.333Z,2.97
2023-05-19T12:28:03.297Z,3.00
2023-05-19T12:30:32.867Z,3.20
2023-05-19T12:33:02.459Z,3.20
2023-05-19T12:35:34.246Z,3.88
2023-05-19T12:38:06.346Z,4.20
2023-05-19T12:40:35.540Z,4.15
2023-05-19T12:43:04.210Z,4.90
2023-05-19T12:45:37.455Z,3.80
2023-05-19T12:48:06.911Z,4.43
2023-05-19T12:50:34.849Z,4.65
2023-05-19T12:53:02.479Z,4.53
2023-05-19T12:55:30.193Z,4.77
2023-05-19T12:57:58.476Z,5.30
2023-05-19T13:00:30.345Z,5.05
2023-05-19T13:03:02.224Z,4.20
2023-05-19T13:05:31.206Z,4.60
2023-05-19T13:08:02.444Z,4.53
2023-05-19T13:10:30.539Z,4.63
2023-05-19T13:13:00.377Z,4.80
2023-05-19T13:15:34.438Z,5.35
2023-05-19T13:18:03.913Z,5.03
2023-05-19T13:20:31.089Z,4.90
2023-05-19T13:22:58.605Z,5.20
2023-05-19T13:25:26.493Z,5.63
2023-05-19T13:27:54.724Z,5.47
2023-05-19T13:30:22.184Z,5.28
2023-05-19T13:32:49.530Z,5.27
2023-05-19T13:35:16.566Z,5.20
2023-05-19T13:37:44.486Z,5.50
2023-05-19T13:40:12.124Z,4.90
2023-05-19T13:42:41.118Z,5.13
2023-05-19T13:45:08.823Z,5.05
2023-05-19T13:47:36.347Z,5.70
2023-05-19T13:50:04.790Z,5.35
2023-05-19T13:52:32.170Z,5.10
2023-05-19T13:54:59.316Z,6.05
2023-05-19T13:57:26.684Z,6.03
2023-05-19T14:00:01.906Z,4.73
2023-05-19T14:02:40.027Z,5.10
2023-05-19T14:05:07.657Z,5.28
2023-05-19T14:07:35.762Z,5.60
2023-05-19T14:10:05.708Z,4.70
2023-05-19T14:12:45.022Z,5.67
2023-05-19T14:15:20.676Z,5.85
2023-05-19T14:17:49.268Z,5.50
2023-05-19T14:20:19.162Z,5.30
2023-05-19T14:22:46.462Z,5.47
2023-05-19T14:25:13.466Z,5.57
2023-05-19T14:27:40.721Z,5.50
2023-05-19T14:30:08.378Z,4.78
2023-05-19T14:32:36.135Z,4.72
2023-05-19T14:35:03.289Z,6.30
2023-05-19T14:37:32.234Z,5.67
2023-05-19T14:39:59.556Z,5.80
2023-05-19T14:42:26.885Z,5.38
2023-05-19T14:44:53.884Z,5.40
2023-05-19T14:47:21.194Z,5.30
2023-05-19T14:49:48.474Z,4.70
2023-05-19T14:52:16.019Z,5.78
2023-05-19T14:54:43.043Z,5.60
2023-05-19T14:57:10.418Z,5.50
2023-05-19T14:59:38.330Z,5.47
2023-05-19T15:02:06.166Z,5.00
2023-05-19T15:04:33.102Z,5.53
2023-05-19T15:09:30.380Z,5.03
2023-05-19T15:11:57.929Z,5.38
2023-05-19T15:14:24.843Z,5.30
2023-05-19T15:16:52.161Z,5.28
2023-05-19T15:19:19.155Z,5.60
2023-05-19T15:21:46.431Z,5.45
2023-05-19T15:24:13.403Z,5.53
2023-05-19T15:26:40.817Z,5.30
2023-05-19T15:29:07.786Z,5.88
2023-05-19T15:31:37.392Z,6.25
2023-05-19T15:34:05.568Z,5.63
2023-05-19T15:36:32.892Z,6.65
2023-05-19T15:38:59.838Z,6.63
2023-05-19T15:41:27.250Z,5.72
2023-05-19T15:43:54.163Z,6.18
2023-05-19T15:46:21.520Z,5.90
2023-05-19T15:48:48.466Z,6.05
2023-05-19T15:51:16.699Z,6.00
2023-05-19T15:53:43.755Z,5.70
2023-05-19T15:56:11.209Z,6.63
2023-05-19T15:58:38.134Z,6.13
2023-05-19T16:01:05.590Z,6.53
2023-05-19T16:03:32.618Z,5.73
2023-05-19T16:06:00.973Z,6.57
2023-05-19T16:08:28.766Z,6.80
2023-05-19T16:10:56.288Z,6.68
2023-05-19T16:13:23.513Z,7.20
2023-05-19T16:15:50.897Z,6.90
2023-05-19T16:18:17.995Z,6.53
2023-05-19T16:20:45.281Z,6.22
2023-05-19T16:23:12.208Z,5.97
2023-05-19T16:25:39.460Z,5.57
2023-05-19T16:28:06.442Z,6.83
2023-05-19T16:30:34.019Z,7.32
2023-05-19T16:33:01.398Z,7.03
2023-05-19T16:35:29.705Z,6.50
2023-05-19T16:37:56.881Z,5.85
2023-05-19T16:40:24.311Z,5.90
2023-05-19T16:42:53.621Z,6.40
2023-05-19T16:45:21.048Z,6.60
2023-05-19T16:47:48.003Z,6.75
2023-05-19T16:50:15.334Z,6.88
2023-05-19T16:52:42.360Z,6.57
2023-05-19T16:55:09.920Z,6.80
2023-05-19T16:57:36.904Z,7.78
2023-05-19T17:00:04.550Z,6.75
2023-05-19T17:02:31.639Z,6.70
2023-05-19T17:04:59.197Z,6.80
2023-05-19T17:07:28.082Z,6.35
2023-05-19T17:09:56.029Z,6.78
2023-05-19T17:12:23.307Z,6.57
2023-05-19T17:14:52.296Z,6.60
2023-05-19T17:17:19.311Z,6.17
2023-05-19T17:19:47.053Z,5.90
2023-05-19T17:22:14.629Z,6.68
2023-05-19T17:24:42.626Z,5.75
2023-05-19T17:27:09.610Z,6.53
2023-05-19T17:29:37.143Z,6.47
2023-05-19T17:32:04.539Z,6.25
2023-05-19T17:34:31.887Z,6.45
2023-05-19T17:36:58.858Z,6.43
2023-05-19T17:39:26.214Z,6.15
2023-05-19T17:41:53.154Z,5.93
2023-05-19T17:44:20.562Z,6.20
2023-05-19T17:46:47.673Z,6.80
2023-05-19T17:49:15.600Z,6.25
2023-05-19T17:51:42.832Z,6.50
2023-05-19T17:54:10.349Z,5.87
2023-05-19T17:56:41.717Z,6.50
2023-05-19T17:59:09.816Z,7.28
2023-05-19T18:01:37.230Z,6.07
2023-05-19T18:04:04.987Z,6.13
2023-05-19T18:06:32.389Z,6.43
2023-05-19T18:09:01.446Z,5.90
2023-05-19T18:11:28.927Z,5.75
2023-05-19T18:13:57.474Z,6.75
2023-05-19T18:16:25.808Z,6.50
2023-05-19T18:18:53.382Z,6.03
2023-05-19T18:21:20.380Z,6.70
2023-05-19T18:23:48.208Z,6.75
2023-05-19T18:26:15.316Z,6.15
2023-05-19T18:28:43.593Z,6.07
2023-05-19T18:31:16.114Z,6.00
2023-05-19T18:33:43.763Z,6.05
2023-05-19T18:36:10.779Z,7.05
2023-05-19T18:38:38.053Z,6.90
2023-05-19T18:41:07.456Z,7.25
2023-05-19T18:43:34.791Z,6.20
2023-05-19T18:46:01.799Z,6.78
2023-05-19T18:48:29.503Z,6.63
2023-05-19T18:50:57.416Z,6.07
2023-05-19T18:53:24.868Z,6.28
2023-05-19T18:55:52.110Z,6.40
2023-05-19T18:58:19.471Z,6.43
2023-05-19T19:00:46.475Z,6.65
2023-05-19T19:03:13.937Z,5.90
2023-05-19T19:05:41.101Z,6.57
2023-05-19T19:08:08.417Z,6.00
2023-05-19T19:10:39.224Z,7.28
2023-05-19T19:13:06.945Z,6.38
2023-05-19T19:15:33.919Z,7.00
2023-05-19T19:18:01.185Z,6.32
2023-05-19T19:20:28.194Z,6.90
2023-05-19T19:22:55.441Z,6.70
2023-05-19T19:25:23.623Z,6.50
2023-05-19T19:27:51.402Z,6.75
2023-05-19T19:30:18.517Z,6.20
2023-05-19T19:32:45.980Z,6.70
2023-05-19T19:35:13.000Z,6.80
2023-05-19T19:37:40.336Z,7.65
2023-05-19T19:40:07.772Z,6.75
2023-05-19T19:42:35.274Z,7.25
2023-05-19T19:45:02.387Z,7.20
2023-05-19T19:47:29.750Z,7.57
2023-05-19T19:49:56.741Z,6.65
2023-05-19T19:52:24.105Z,7.55
2023-05-19T19:54:51.373Z,7.07
2023-05-19T19:57:18.776Z,7.67
2023-05-19T19:59:45.846Z,7.03
2023-05-19T20:02:14.451Z,7.75
2023-05-19T20:04:41.452Z,7.70
2023-05-19T20:07:08.801Z,7.13
2023-05-19T20:09:35.792Z,7.83
2023-05-19T20:12:03.489Z,7.75
2023-05-19T20:14:30.783Z,7.38
2023-05-19T20:16:58.059Z,6.93
2023-05-19T20:19:28.119Z,7.63
2023-05-19T20:21:55.624Z,7.50
2023-05-19T20:24:22.525Z,7.18
2023-05-19T20:26:50.251Z,7.22
2023-05-19T20:29:17.332Z,8.98
2023-05-19T20:31:46.752Z,7.60
2023-05-19T20:34:13.842Z,8.40
2023-05-19T20:36:41.221Z,8.35
2023-05-19T20:39:09.980Z,8.52
2023-05-19T20:41:37.279Z,8.65
2023-05-19T20:44:06.494Z,9.40
2023-05-19T20:46:33.997Z,7.50
2023-05-19T20:49:01.160Z,8.63
2023-05-19T20:51:28.430Z,9.40
2023-05-19T20:53:55.628Z,10.18
2023-05-19T20:56:23.067Z,9.52
2023-05-19T20:58:50.004Z,9.47
2023-05-19T21:01:17.596Z,8.55
2023-05-19T21:03:44.574Z,9.50
2023-05-19T21:06:11.983Z,9.20
2023-05-19T21:08:38.953Z,8.57
2023-05-19T21:11:06.273Z,7.77
2023-05-19T21:13:34.004Z,7.53
2023-05-19T21:16:01.470Z,7.45
2023-05-19T21:18:29.051Z,6.32
2023-05-19T21:20:56.532Z,8.80
2023-05-19T21:23:23.500Z,8.00
2023-05-19T21:25:51.122Z,7.32
2023-05-19T21:28:18.229Z,6.72
2023-05-19T21:30:48.263Z,6.30
2023-05-19T21:33:16.086Z,7.30
2023-05-19T21:35:44.834Z,6.77
2023-05-19T21:38:22.622Z,6.75
2023-05-19T21:40:52.584Z,7.53
2023-05-19T21:43:20.029Z,6.78
2023-05-19T21:45:47.387Z,6.90
2023-05-19T21:48:14.350Z,7.00
2023-05-19T21:50:41.597Z,6.72
2023-05-19T21:53:08.771Z,7.18
2023-05-19T21:55:36.060Z,6.43
2023-05-19T21:58:03.081Z,6.32
2023-05-19T22:00:30.355Z,7.83
2023-05-19T22:02:57.407Z,6.68
2023-05-19T22:05:24.784Z,5.82
2023-05-19T22:07:51.699Z,6.05
2023-05-19T22:10:19.043Z,7.30
2023-05-19T22:12:46.037Z,6.50
2023-05-19T22:15:16.328Z,7.20
2023-05-19T22:17:43.339Z,6.65
2023-05-19T22:20:11.201Z,6.30
2023-05-19T22:22:38.141Z,6.22
2023-05-19T22:25:06.225Z,6.30
2023-05-19T22:27:33.147Z,5.60
2023-05-19T22:30:00.828Z,5.97
2023-05-19T22:32:27.954Z,4.97
2023-05-19T22:34:55.269Z,5.75
2023-05-19T22:37:23.492Z,5.53
2023-05-19T22:39:51.398Z,6.35
2023-05-19T22:42:18.822Z,6.10
2023-05-19T22:44:46.407Z,6.10
2023-05-19T22:47:13.643Z,6.05
2023-05-19T22:49:42.628Z,6.17
2023-05-19T22:52:11.219Z,6.10
2023-05-19T22:54:38.865Z,6.28
2023-05-19T22:57:06.025Z,5.95
2023-05-19T22:59:33.840Z,6.13
2023-05-19T23:02:00.868Z,5.27
2023-05-19T23:04:28.268Z,5.43
2023-05-19T23:06:55.459Z,5.35
2023-05-19T23:09:22.761Z,5.80
2023-05-19T23:11:50.343Z,5.88
2023-05-19T23:14:18.700Z,5.37
2023-05-19T23:16:45.751Z,5.15
2023-05-19T23:19:13.090Z,5.03
2023-05-19T23:21:41.464Z,4.63
2023-05-19T23:24:08.789Z,5.57
2023-05-19T23:26:35.871Z,5.00
2023-05-19T23:29:03.127Z,5.35
2023-05-19T23:31:30.144Z,5.30
2023-05-19T23:33:57.495Z,4.97
2023-05-19T23:36:24.557Z,5.30
2023-05-19T23:38:51.808Z,4.80
2023-05-19T23:41:18.931Z,5.65
2023-05-19T23:43:46.421Z,5.28
2023-05-19T23:46:13.460Z,5.30
2023-05-19T23:48:40.910Z,4.57
2023-05-19T23:51:07.991Z,4.30
2023-05-19T23:53:35.279Z,4.72
2023-05-19T23:56:02.396Z,4.40
2023-05-19T23:58:29.817Z,4.30
